sensor_id;sensor_type;location;lat;lon;timestamp;temperature;humidity
74494;SHT31;62978;51.094;-115.362;2022-09-30T00:01:13;14.33;76.24
74494;SHT31;62978;51.094;-115.362;2022-09-30T00:03:41;14.38;76.07
74494;SHT31;62978;51.094;-115.362;2022-09-30T00:06:08;14.36;76.69
74494;SHT31;62978;51.094;-115.362;2022-09-30T00:08:40;14.27;76.75
74494;SHT31;62978;51.094;-115.362;2022-09-30T00:11:09;14.30;76.60
74494;SHT31;62978;51.094;-115.362;2022-09-30T00:13:46;14.32;76.59
74494;SHT31;62978;51.094;-115.362;2022-09-30T00:16:16;14.31;76.63
74494;SHT31;62978;51.094;-115.362;2022-09-30T00:18:59;14.30;76.67
74494;SHT31;62978;51.094;-115.362;2022-09-30T00:21:49;14.28;76.49
74494;SHT31;62978;51.094;-115.362;2022-09-30T00:24:17;14.27;76.66
74494;SHT31;62978;51.094;-115.362;2022-09-30T00:26:54;14.25;76.76
74494;SHT31;62978;51.094;-115.362;2022-09-30T00:29:28;14.17;77.32
74494;SHT31;62978;51.094;-115.362;2022-09-30T00:31:59;14.12;77.29
74494;SHT31;62978;51.094;-115.362;2022-09-30T00:34:36;14.06;77.89
74494;SHT31;62978;51.094;-115.362;2022-09-30T00:37:03;13.97;78.26
74494;SHT31;62978;51.094;-115.362;2022-09-30T00:39:31;13.95;78.36
74494;SHT31;62978;51.094;-115.362;2022-09-30T00:42:17;13.94;78.49
74494;SHT31;62978;51.094;-115.362;2022-09-30T00:45:20;13.89;78.85
74494;SHT31;62978;51.094;-115.362;2022-09-30T00:51:23;13.69;79.74
74494;SHT31;62978;51.094;-115.362;2022-09-30T00:54:31;13.52;80.22
74494;SHT31;62978;51.094;-115.362;2022-09-30T00:57:01;13.52;79.88
74494;SHT31;62978;51.094;-115.362;2022-09-30T00:59:36;13.50;79.80
74494;SHT31;62978;51.094;-115.362;2022-09-30T01:05:17;13.53;79.15
74494;SHT31;62978;51.094;-115.362;2022-09-30T01:07:45;13.55;79.07
74494;SHT31;62978;51.094;-115.362;2022-09-30T01:10:14;13.57;78.98
74494;SHT31;62978;51.094;-115.362;2022-09-30T01:13:15;13.57;79.04
74494;SHT31;62978;51.094;-115.362;2022-09-30T01:29:06;13.07;80.05
74494;SHT31;62978;51.094;-115.362;2022-09-30T01:35:49;13.15;79.41
74494;SHT31;62978;51.094;-115.362;2022-09-30T01:38:30;13.17;79.28
74494;SHT31;62978;51.094;-115.362;2022-09-30T01:41:26;13.16;79.40
74494;SHT31;62978;51.094;-115.362;2022-09-30T01:44:45;13.14;79.36
74494;SHT31;62978;51.094;-115.362;2022-09-30T01:47:42;13.07;80.28
74494;SHT31;62978;51.094;-115.362;2022-09-30T01:56:52;12.89;80.17
74494;SHT31;62978;51.094;-115.362;2022-09-30T01:59:59;12.89;80.03
74494;SHT31;62978;51.094;-115.362;2022-09-30T02:02:53;12.91;79.79
74494;SHT31;62978;51.094;-115.362;2022-09-30T02:05:35;12.96;79.63
74494;SHT31;62978;51.094;-115.362;2022-09-30T02:08:29;12.99;79.57
74494;SHT31;62978;51.094;-115.362;2022-09-30T02:11:35;13.02;79.63
74494;SHT31;62978;51.094;-115.362;2022-09-30T02:17:26;12.98;79.79
74494;SHT31;62978;51.094;-115.362;2022-09-30T02:20:07;12.84;80.89
74494;SHT31;62978;51.094;-115.362;2022-09-30T02:25:46;12.45;81.97
74494;SHT31;62978;51.094;-115.362;2022-09-30T02:28:30;12.47;81.84
74494;SHT31;62978;51.094;-115.362;2022-09-30T02:31:01;12.42;82.14
74494;SHT31;62978;51.094;-115.362;2022-09-30T02:34:37;12.45;81.79
74494;SHT31;62978;51.094;-115.362;2022-09-30T02:36:55;12.48;81.54
74494;SHT31;62978;51.094;-115.362;2022-09-30T02:40:00;12.54;81.19
74494;SHT31;62978;51.094;-115.362;2022-09-30T02:42:35;12.60;81.03
74494;SHT31;62978;51.094;-115.362;2022-09-30T02:45:10;12.62;80.87
74494;SHT31;62978;51.094;-115.362;2022-09-30T02:47:49;12.60;81.11
74494;SHT31;62978;51.094;-115.362;2022-09-30T02:51:01;12.52;81.64
74494;SHT31;62978;51.094;-115.362;2022-09-30T03:01:30;12.09;83.08
74494;SHT31;62978;51.094;-115.362;2022-09-30T03:04:39;12.08;83.29
74494;SHT31;62978;51.094;-115.362;2022-09-30T03:07:51;12.04;83.34
74494;SHT31;62978;51.094;-115.362;2022-09-30T03:10:19;12.06;82.82
74494;SHT31;62978;51.094;-115.362;2022-09-30T03:26:42;12.15;82.38
74494;SHT31;62978;51.094;-115.362;2022-09-30T03:30:10;12.12;82.38
74494;SHT31;62978;51.094;-115.362;2022-09-30T03:46:52;11.87;82.45
74494;SHT31;62978;51.094;-115.362;2022-09-30T03:49:46;11.90;82.15
74494;SHT31;62978;51.094;-115.362;2022-09-30T03:52:41;11.85;82.34
74494;SHT31;62978;51.094;-115.362;2022-09-30T03:55:20;11.72;82.70
74494;SHT31;62978;51.094;-115.362;2022-09-30T03:58:12;11.68;82.57
74494;SHT31;62978;51.094;-115.362;2022-09-30T04:00:47;11.61;82.36
74494;SHT31;62978;51.094;-115.362;2022-09-30T04:03:35;11.58;82.26
74494;SHT31;62978;51.094;-115.362;2022-09-30T04:06:07;11.52;82.21
74494;SHT31;62978;51.094;-115.362;2022-09-30T04:08:39;11.45;82.12
74494;SHT31;62978;51.094;-115.362;2022-09-30T04:11:32;11.38;82.02
74494;SHT31;62978;51.094;-115.362;2022-09-30T04:23:53;10.80;82.67
74494;SHT31;62978;51.094;-115.362;2022-09-30T04:26:21;10.71;82.97
74494;SHT31;62978;51.094;-115.362;2022-09-30T04:28:55;10.57;83.16
74494;SHT31;62978;51.094;-115.362;2022-09-30T04:31:26;10.56;82.91
74494;SHT31;62978;51.094;-115.362;2022-09-30T04:34:26;10.56;82.64
74494;SHT31;62978;51.094;-115.362;2022-09-30T04:36:57;10.56;82.48
74494;SHT31;62978;51.094;-115.362;2022-09-30T04:39:48;10.51;82.57
74494;SHT31;62978;51.094;-115.362;2022-09-30T04:42:19;10.49;82.86
74494;SHT31;62978;51.094;-115.362;2022-09-30T04:44:56;10.48;82.92
74494;SHT31;62978;51.094;-115.362;2022-09-30T04:57:43;10.52;82.61
74494;SHT31;62978;51.094;-115.362;2022-09-30T05:00:40;10.57;82.69
74494;SHT31;62978;51.094;-115.362;2022-09-30T05:21:26;10.37;84.15
74494;SHT31;62978;51.094;-115.362;2022-09-30T05:23:56;10.40;84.04
74494;SHT31;62978;51.094;-115.362;2022-09-30T05:26:43;10.42;84.05
74494;SHT31;62978;51.094;-115.362;2022-09-30T05:32:49;10.45;83.96
74494;SHT31;62978;51.094;-115.362;2022-09-30T05:35:22;10.31;85.07
74494;SHT31;62978;51.094;-115.362;2022-09-30T05:37:53;10.06;85.64
74494;SHT31;62978;51.094;-115.362;2022-09-30T05:40:52;9.91;85.76
74494;SHT31;62978;51.094;-115.362;2022-09-30T05:43:54;9.77;86.44
74494;SHT31;62978;51.094;-115.362;2022-09-30T05:53:02;9.91;85.45
74494;SHT31;62978;51.094;-115.362;2022-09-30T05:56:14;9.96;85.27
74494;SHT31;62978;51.094;-115.362;2022-09-30T05:59:04;10.04;85.10
74494;SHT31;62978;51.094;-115.362;2022-09-30T06:10:56;10.03;84.88
74494;SHT31;62978;51.094;-115.362;2022-09-30T06:19:20;9.90;84.93
74494;SHT31;62978;51.094;-115.362;2022-09-30T06:22:03;9.96;84.73
74494;SHT31;62978;51.094;-115.362;2022-09-30T06:24:37;10.00;84.75
74494;SHT31;62978;51.094;-115.362;2022-09-30T06:27:51;9.94;84.75
74494;SHT31;62978;51.094;-115.362;2022-09-30T06:37:14;9.55;85.36
74494;SHT31;62978;51.094;-115.362;2022-09-30T06:39:43;9.50;85.35
74494;SHT31;62978;51.094;-115.362;2022-09-30T06:42:30;9.59;85.34
74494;SHT31;62978;51.094;-115.362;2022-09-30T06:45:02;9.62;85.20
74494;SHT31;62978;51.094;-115.362;2022-09-30T06:47:45;9.60;85.18
74494;SHT31;62978;51.094;-115.362;2022-09-30T06:51:34;9.64;85.00
74494;SHT31;62978;51.094;-115.362;2022-09-30T06:54:42;9.67;84.92
74494;SHT31;62978;51.094;-115.362;2022-09-30T06:57:11;9.66;84.82
74494;SHT31;62978;51.094;-115.362;2022-09-30T06:59:47;9.68;84.65
74494;SHT31;62978;51.094;-115.362;2022-09-30T07:02:16;9.70;84.57
74494;SHT31;62978;51.094;-115.362;2022-09-30T07:04:48;9.70;84.50
74494;SHT31;62978;51.094;-115.362;2022-09-30T07:07:20;9.74;84.39
74494;SHT31;62978;51.094;-115.362;2022-09-30T07:09:50;9.76;84.39
74494;SHT31;62978;51.094;-115.362;2022-09-30T07:12:21;9.77;84.31
74494;SHT31;62978;51.094;-115.362;2022-09-30T07:14:53;9.66;84.41
74494;SHT31;62978;51.094;-115.362;2022-09-30T07:20:39;9.37;85.12
74494;SHT31;62978;51.094;-115.362;2022-09-30T07:26:28;9.21;85.23
74494;SHT31;62978;51.094;-115.362;2022-09-30T07:29:02;9.15;85.52
74494;SHT31;62978;51.094;-115.362;2022-09-30T07:31:39;9.12;85.45
74494;SHT31;62978;51.094;-115.362;2022-09-30T07:34:16;9.14;85.45
74494;SHT31;62978;51.094;-115.362;2022-09-30T07:36:46;9.17;85.33
74494;SHT31;62978;51.094;-115.362;2022-09-30T07:39:20;9.23;85.25
74494;SHT31;62978;51.094;-115.362;2022-09-30T07:42:13;9.27;85.12
74494;SHT31;62978;51.094;-115.362;2022-09-30T07:45:30;9.35;84.89
74494;SHT31;62978;51.094;-115.362;2022-09-30T07:48:15;9.36;84.82
74494;SHT31;62978;51.094;-115.362;2022-09-30T07:54:50;9.34;84.72
74494;SHT31;62978;51.094;-115.362;2022-09-30T07:57:18;9.16;85.13
74494;SHT31;62978;51.094;-115.362;2022-09-30T08:02:34;8.87;85.81
74494;SHT31;62978;51.094;-115.362;2022-09-30T08:05:41;8.95;85.83
74494;SHT31;62978;51.094;-115.362;2022-09-30T08:08:14;9.05;85.62
74494;SHT31;62978;51.094;-115.362;2022-09-30T08:11:14;9.11;85.41
74494;SHT31;62978;51.094;-115.362;2022-09-30T08:13:59;9.13;85.20
74494;SHT31;62978;51.094;-115.362;2022-09-30T08:28:49;9.07;85.12
74494;SHT31;62978;51.094;-115.362;2022-09-30T08:31:46;9.04;85.08
74494;SHT31;62978;51.094;-115.362;2022-09-30T08:34:17;9.00;85.07
74494;SHT31;62978;51.094;-115.362;2022-09-30T08:36:53;8.94;85.19
74494;SHT31;62978;51.094;-115.362;2022-09-30T08:40:02;8.88;85.35
74494;SHT31;62978;51.094;-115.362;2022-09-30T08:54:20;8.87;84.99
74494;SHT31;62978;51.094;-115.362;2022-09-30T08:56:59;8.81;85.06
74494;SHT31;62978;51.094;-115.362;2022-09-30T08:59:35;8.68;85.15
74494;SHT31;62978;51.094;-115.362;2022-09-30T09:02:53;8.52;85.43
74494;SHT31;62978;51.094;-115.362;2022-09-30T09:13:27;8.21;86.29
74494;SHT31;62978;51.094;-115.362;2022-09-30T09:16:50;8.19;86.55
74494;SHT31;62978;51.094;-115.362;2022-09-30T09:23:07;8.14;87.00
74494;SHT31;62978;51.094;-115.362;2022-09-30T09:25:56;8.08;87.33
74494;SHT31;62978;51.094;-115.362;2022-09-30T09:29:09;7.99;87.39
74494;SHT31;62978;51.094;-115.362;2022-09-30T09:33:13;7.93;87.22
74494;SHT31;62978;51.094;-115.362;2022-09-30T09:40:25;7.87;87.45
74494;SHT31;62978;51.094;-115.362;2022-09-30T09:49:58;7.74;88.03
74494;SHT31;62978;51.094;-115.362;2022-09-30T09:56:25;7.68;88.13
74494;SHT31;62978;51.094;-115.362;2022-09-30T10:08:51;7.88;88.33
74494;SHT31;62978;51.094;-115.362;2022-09-30T10:11:33;7.88;88.32
74494;SHT31;62978;51.094;-115.362;2022-09-30T10:15:11;7.84;88.53
74494;SHT31;62978;51.094;-115.362;2022-09-30T10:18:01;7.76;88.80
74494;SHT31;62978;51.094;-115.362;2022-09-30T10:20:32;7.72;88.56
74494;SHT31;62978;51.094;-115.362;2022-09-30T10:30:34;8.00;87.94
74494;SHT31;62978;51.094;-115.362;2022-09-30T10:33:12;7.99;87.98
74494;SHT31;62978;51.094;-115.362;2022-09-30T10:36:22;7.99;88.02
74494;SHT31;62978;51.094;-115.362;2022-09-30T10:42:46;7.86;88.25
74494;SHT31;62978;51.094;-115.362;2022-09-30T10:49:55;7.87;88.19
74494;SHT31;62978;51.094;-115.362;2022-09-30T10:56:09;8.07;87.78
74494;SHT31;62978;51.094;-115.362;2022-09-30T10:59:09;8.08;87.63
74494;SHT31;62978;51.094;-115.362;2022-09-30T11:02:21;8.08;87.61
74494;SHT31;62978;51.094;-115.362;2022-09-30T11:05:55;8.15;87.42
74494;SHT31;62978;51.094;-115.362;2022-09-30T11:08:59;8.13;87.30
74494;SHT31;62978;51.094;-115.362;2022-09-30T11:12:05;8.11;87.09
74494;SHT31;62978;51.094;-115.362;2022-09-30T11:15:55;8.04;87.15
74494;SHT31;62978;51.094;-115.362;2022-09-30T11:56:43;7.97;86.60
74494;SHT31;62978;51.094;-115.362;2022-09-30T12:06:58;7.84;86.71
74494;SHT31;62978;51.094;-115.362;2022-09-30T12:09:55;7.86;86.58
74494;SHT31;62978;51.094;-115.362;2022-09-30T12:19:37;7.80;86.50
74494;SHT31;62978;51.094;-115.362;2022-09-30T12:30:12;7.67;86.73
74494;SHT31;62978;51.094;-115.362;2022-09-30T12:50:56;7.36;86.56
74494;SHT31;62978;51.094;-115.362;2022-09-30T13:19:55;7.29;86.51
74494;SHT31;62978;51.094;-115.362;2022-09-30T13:23:35;7.43;86.25
74494;SHT31;62978;51.094;-115.362;2022-09-30T13:32:05;7.51;86.01
74494;SHT31;62978;51.094;-115.362;2022-09-30T13:38:21;7.46;85.97
74494;SHT31;62978;51.094;-115.362;2022-09-30T13:41:21;7.38;86.05
74494;SHT31;62978;51.094;-115.362;2022-09-30T13:50:48;7.38;86.29
74494;SHT31;62978;51.094;-115.362;2022-09-30T13:56:27;7.21;86.60
74494;SHT31;62978;51.094;-115.362;2022-09-30T14:17:28;7.07;86.78
74494;SHT31;62978;51.094;-115.362;2022-09-30T14:24:24;7.25;86.43
74494;SHT31;62978;51.094;-115.362;2022-09-30T14:27:28;7.25;86.48
74494;SHT31;62978;51.094;-115.362;2022-09-30T14:33:47;7.43;86.13
74494;SHT31;62978;51.094;-115.362;2022-09-30T14:39:33;7.48;86.10
74494;SHT31;62978;51.094;-115.362;2022-09-30T14:56:37;7.58;85.89
74494;SHT31;62978;51.094;-115.362;2022-09-30T15:02:58;7.77;85.37
74494;SHT31;62978;51.094;-115.362;2022-09-30T15:05:29;7.83;85.22
74494;SHT31;62978;51.094;-115.362;2022-09-30T15:08:19;7.94;85.18
74494;SHT31;62978;51.094;-115.362;2022-09-30T15:10:48;7.98;84.95
74494;SHT31;62978;51.094;-115.362;2022-09-30T15:13:41;7.95;85.00
74494;SHT31;62978;51.094;-115.362;2022-09-30T15:19:24;7.82;85.22
74494;SHT31;62978;51.094;-115.362;2022-09-30T15:22:08;7.88;85.21
74494;SHT31;62978;51.094;-115.362;2022-09-30T15:27:26;7.88;84.98
74494;SHT31;62978;51.094;-115.362;2022-09-30T15:33:11;7.94;84.88
74494;SHT31;62978;51.094;-115.362;2022-09-30T15:38:58;7.93;85.08
74494;SHT31;62978;51.094;-115.362;2022-09-30T15:41:36;7.97;85.07
74494;SHT31;62978;51.094;-115.362;2022-09-30T15:44:18;8.02;85.06
74494;SHT31;62978;51.094;-115.362;2022-09-30T15:47:09;8.05;84.98
74494;SHT31;62978;51.094;-115.362;2022-09-30T15:50:28;8.12;84.95
74494;SHT31;62978;51.094;-115.362;2022-09-30T16:07:57;8.32;84.79
74494;SHT31;62978;51.094;-115.362;2022-09-30T16:10:34;8.40;84.74
74494;SHT31;62978;51.094;-115.362;2022-09-30T16:20:24;8.82;83.84
74494;SHT31;62978;51.094;-115.362;2022-09-30T16:22:56;8.86;83.95
74494;SHT31;62978;51.094;-115.362;2022-09-30T16:33:24;9.52;82.98
74494;SHT31;62978;51.094;-115.362;2022-09-30T16:38:40;9.80;82.38
74494;SHT31;62978;51.094;-115.362;2022-09-30T16:41:23;9.94;82.12
74494;SHT31;62978;51.094;-115.362;2022-09-30T16:44:26;10.06;81.83
74494;SHT31;62978;51.094;-115.362;2022-09-30T16:56:56;10.20;80.86
74494;SHT31;62978;51.094;-115.362;2022-09-30T16:59:46;10.13;81.02
74494;SHT31;62978;51.094;-115.362;2022-09-30T17:02:27;10.12;80.99
74494;SHT31;62978;51.094;-115.362;2022-09-30T17:05:03;10.11;80.91
74494;SHT31;62978;51.094;-115.362;2022-09-30T17:11:13;10.15;81.21
74494;SHT31;62978;51.094;-115.362;2022-09-30T17:13:56;10.18;81.03
74494;SHT31;62978;51.094;-115.362;2022-09-30T17:19:54;10.31;80.66
74494;SHT31;62978;51.094;-115.362;2022-09-30T17:23:33;10.38;80.81
74494;SHT31;62978;51.094;-115.362;2022-09-30T17:33:06;10.45;80.71
74494;SHT31;62978;51.094;-115.362;2022-09-30T17:35:46;10.58;80.79
74494;SHT31;62978;51.094;-115.362;2022-09-30T17:38:51;10.79;80.37
74494;SHT31;62978;51.094;-115.362;2022-09-30T17:41:21;10.80;79.45
74494;SHT31;62978;51.094;-115.362;2022-09-30T17:44:15;10.76;79.44
74494;SHT31;62978;51.094;-115.362;2022-09-30T17:47:27;10.94;79.57
74494;SHT31;62978;51.094;-115.362;2022-09-30T17:50:21;11.05;79.15
74494;SHT31;62978;51.094;-115.362;2022-09-30T17:59:30;11.25;77.32
74494;SHT31;62978;51.094;-115.362;2022-09-30T18:02:08;11.26;77.75
74494;SHT31;62978;51.094;-115.362;2022-09-30T18:04:50;11.44;77.55
74494;SHT31;62978;51.094;-115.362;2022-09-30T18:07:39;11.61;77.25
74494;SHT31;62978;51.094;-115.362;2022-09-30T18:10:10;11.68;76.68
74494;SHT31;62978;51.094;-115.362;2022-09-30T18:12:41;11.73;76.31
74494;SHT31;62978;51.094;-115.362;2022-09-30T18:15:14;11.83;76.53
74494;SHT31;62978;51.094;-115.362;2022-09-30T18:17:42;12.03;76.47
74494;SHT31;62978;51.094;-115.362;2022-09-30T18:20:12;12.19;76.16
74494;SHT31;62978;51.094;-115.362;2022-09-30T18:23:04;12.24;75.54
74494;SHT31;62978;51.094;-115.362;2022-09-30T18:25:34;12.37;75.29
74494;SHT31;62978;51.094;-115.362;2022-09-30T18:28:08;12.29;74.82
74494;SHT31;62978;51.094;-115.362;2022-09-30T18:30:45;12.34;75.05
74494;SHT31;62978;51.094;-115.362;2022-09-30T18:33:12;12.33;74.78
74494;SHT31;62978;51.094;-115.362;2022-09-30T18:35:50;12.36;74.97
74494;SHT31;62978;51.094;-115.362;2022-09-30T18:39:00;12.50;74.86
74494;SHT31;62978;51.094;-115.362;2022-09-30T18:41:28;12.53;74.55
74494;SHT31;62978;51.094;-115.362;2022-09-30T18:46:39;12.69;73.19
74494;SHT31;62978;51.094;-115.362;2022-09-30T18:49:11;12.55;73.51
74494;SHT31;62978;51.094;-115.362;2022-09-30T18:51:42;12.51;73.93
74494;SHT31;62978;51.094;-115.362;2022-09-30T18:55:00;12.52;74.15
74494;SHT31;62978;51.094;-115.362;2022-09-30T18:57:27;12.50;74.12
74494;SHT31;62978;51.094;-115.362;2022-09-30T19:00:24;12.48;74.49
74494;SHT31;62978;51.094;-115.362;2022-09-30T19:05:39;12.56;74.54
74494;SHT31;62978;51.094;-115.362;2022-09-30T19:08:26;12.59;74.32
74494;SHT31;62978;51.094;-115.362;2022-09-30T19:10:56;12.63;74.18
74494;SHT31;62978;51.094;-115.362;2022-09-30T19:13:57;12.66;73.70
74494;SHT31;62978;51.094;-115.362;2022-09-30T19:16:27;12.59;73.76
74494;SHT31;62978;51.094;-115.362;2022-09-30T19:19:13;12.64;73.89
74494;SHT31;62978;51.094;-115.362;2022-09-30T19:22:16;12.76;73.63
74494;SHT31;62978;51.094;-115.362;2022-09-30T19:24:52;12.92;73.69
74494;SHT31;62978;51.094;-115.362;2022-09-30T19:27:23;13.14;72.21
74494;SHT31;62978;51.094;-115.362;2022-09-30T19:29:51;13.35;71.63
74494;SHT31;62978;51.094;-115.362;2022-09-30T19:32:20;13.66;71.04
74494;SHT31;62978;51.094;-115.362;2022-09-30T19:34:48;14.07;70.33
74494;SHT31;62978;51.094;-115.362;2022-09-30T19:37:21;14.51;69.72
74494;SHT31;62978;51.094;-115.362;2022-09-30T19:39:49;14.90;68.73
74494;SHT31;62978;51.094;-115.362;2022-09-30T19:42:16;15.27;67.70
74494;SHT31;62978;51.094;-115.362;2022-09-30T19:44:55;15.52;66.49
74494;SHT31;62978;51.094;-115.362;2022-09-30T19:47:23;15.69;66.61
74494;SHT31;62978;51.094;-115.362;2022-09-30T19:49:56;15.90;66.35
74494;SHT31;62978;51.094;-115.362;2022-09-30T19:52:26;16.05;65.97
74494;SHT31;62978;51.094;-115.362;2022-09-30T19:54:54;16.12;65.18
74494;SHT31;62978;51.094;-115.362;2022-09-30T19:57:21;16.26;65.59
74494;SHT31;62978;51.094;-115.362;2022-09-30T19:59:52;16.43;64.53
74494;SHT31;62978;51.094;-115.362;2022-09-30T20:05:36;16.68;63.81
74494;SHT31;62978;51.094;-115.362;2022-09-30T20:08:24;16.78;62.27
74494;SHT31;62978;51.094;-115.362;2022-09-30T20:11:01;16.81;60.73
74494;SHT31;62978;51.094;-115.362;2022-09-30T20:14:05;16.92;60.73
74494;SHT31;62978;51.094;-115.362;2022-09-30T20:16:52;17.03;60.60
74494;SHT31;62978;51.094;-115.362;2022-09-30T20:19:20;17.13;60.46
74494;SHT31;62978;51.094;-115.362;2022-09-30T20:21:51;17.21;60.04
74494;SHT31;62978;51.094;-115.362;2022-09-30T20:24:19;17.25;59.60
74494;SHT31;62978;51.094;-115.362;2022-09-30T20:26:47;17.31;59.36
74494;SHT31;62978;51.094;-115.362;2022-09-30T20:29:15;17.42;59.02
74494;SHT31;62978;51.094;-115.362;2022-09-30T20:31:55;17.51;58.35
74494;SHT31;62978;51.094;-115.362;2022-09-30T20:34:50;17.66;57.76
74494;SHT31;62978;51.094;-115.362;2022-09-30T20:37:37;17.87;57.25
74494;SHT31;62978;51.094;-115.362;2022-09-30T20:40:05;18.03;56.16
74494;SHT31;62978;51.094;-115.362;2022-09-30T20:42:34;18.17;55.33
74494;SHT31;62978;51.094;-115.362;2022-09-30T20:45:11;18.26;54.56
74494;SHT31;62978;51.094;-115.362;2022-09-30T20:48:33;18.27;54.38
74494;SHT31;62978;51.094;-115.362;2022-09-30T20:51:36;18.35;53.57
74494;SHT31;62978;51.094;-115.362;2022-09-30T20:53:57;18.61;53.16
74494;SHT31;62978;51.094;-115.362;2022-09-30T20:56:26;18.82;52.07
74494;SHT31;62978;51.094;-115.362;2022-09-30T20:58:58;19.04;51.71
74494;SHT31;62978;51.094;-115.362;2022-09-30T21:01:26;19.20;49.87
74494;SHT31;62978;51.094;-115.362;2022-09-30T21:03:54;19.27;48.43
74494;SHT31;62978;51.094;-115.362;2022-09-30T21:06:25;19.29;49.00
74494;SHT31;62978;51.094;-115.362;2022-09-30T21:09:43;19.31;49.80
74494;SHT31;62978;51.094;-115.362;2022-09-30T21:12:28;19.38;50.06
74494;SHT31;62978;51.094;-115.362;2022-09-30T21:14:59;19.48;50.00
74494;SHT31;62978;51.094;-115.362;2022-09-30T21:18:07;19.54;49.87
74494;SHT31;62978;51.094;-115.362;2022-09-30T21:21:00;19.73;49.45
74494;SHT31;62978;51.094;-115.362;2022-09-30T21:23:50;19.99;49.01
74494;SHT31;62978;51.094;-115.362;2022-09-30T21:26:20;20.19;49.05
74494;SHT31;62978;51.094;-115.362;2022-09-30T21:28:56;20.27;49.53
74494;SHT31;62978;51.094;-115.362;2022-09-30T21:31:55;20.23;48.95
74494;SHT31;62978;51.094;-115.362;2022-09-30T21:34:22;20.13;49.09
74494;SHT31;62978;51.094;-115.362;2022-09-30T21:36:53;19.94;48.29
74494;SHT31;62978;51.094;-115.362;2022-09-30T21:39:20;19.72;49.21
74494;SHT31;62978;51.094;-115.362;2022-09-30T21:42:09;19.50;50.10
74494;SHT31;62978;51.094;-115.362;2022-09-30T21:44:59;19.45;50.42
74494;SHT31;62978;51.094;-115.362;2022-09-30T21:47:28;19.35;50.37
74494;SHT31;62978;51.094;-115.362;2022-09-30T21:49:55;19.21;50.95
74494;SHT31;62978;51.094;-115.362;2022-09-30T21:52:43;19.19;51.37
74494;SHT31;62978;51.094;-115.362;2022-09-30T21:55:13;19.12;51.52
74494;SHT31;62978;51.094;-115.362;2022-09-30T21:57:41;19.05;52.38
74494;SHT31;62978;51.094;-115.362;2022-09-30T22:00:10;19.14;52.41
74494;SHT31;62978;51.094;-115.362;2022-09-30T22:02:38;19.25;52.25
74494;SHT31;62978;51.094;-115.362;2022-09-30T22:05:55;19.36;51.75
74494;SHT31;62978;51.094;-115.362;2022-09-30T22:08:24;19.44;51.66
74494;SHT31;62978;51.094;-115.362;2022-09-30T22:10:57;19.57;51.73
74494;SHT31;62978;51.094;-115.362;2022-09-30T22:13:24;19.65;51.73
74494;SHT31;62978;51.094;-115.362;2022-09-30T22:15:51;19.78;51.32
74494;SHT31;62978;51.094;-115.362;2022-09-30T22:18:29;19.73;49.92
74494;SHT31;62978;51.094;-115.362;2022-09-30T22:21:05;19.61;49.86
74494;SHT31;62978;51.094;-115.362;2022-09-30T22:23:42;19.64;50.69
74494;SHT31;62978;51.094;-115.362;2022-09-30T22:26:34;19.72;50.85
74494;SHT31;62978;51.094;-115.362;2022-09-30T22:29:03;19.80;50.23
74494;SHT31;62978;51.094;-115.362;2022-09-30T22:31:38;19.83;50.56
74494;SHT31;62978;51.094;-115.362;2022-09-30T22:34:06;19.84;50.50
74494;SHT31;62978;51.094;-115.362;2022-09-30T22:36:56;19.85;50.30
74494;SHT31;62978;51.094;-115.362;2022-09-30T22:39:48;19.89;50.55
74494;SHT31;62978;51.094;-115.362;2022-09-30T22:42:15;19.92;51.14
74494;SHT31;62978;51.094;-115.362;2022-09-30T22:44:45;19.94;50.87
74494;SHT31;62978;51.094;-115.362;2022-09-30T22:47:34;19.95;50.26
74494;SHT31;62978;51.094;-115.362;2022-09-30T22:50:01;19.97;50.60
74494;SHT31;62978;51.094;-115.362;2022-09-30T22:52:29;19.95;50.78
74494;SHT31;62978;51.094;-115.362;2022-09-30T22:54:59;19.93;51.41
74494;SHT31;62978;51.094;-115.362;2022-09-30T22:57:27;19.86;51.52
74494;SHT31;62978;51.094;-115.362;2022-09-30T22:59:57;19.88;50.98
74494;SHT31;62978;51.094;-115.362;2022-09-30T23:02:25;19.87;51.11
74494;SHT31;62978;51.094;-115.362;2022-09-30T23:04:52;19.74;50.47
74494;SHT31;62978;51.094;-115.362;2022-09-30T23:07:19;19.56;51.14
74494;SHT31;62978;51.094;-115.362;2022-09-30T23:09:47;19.47;51.70
74494;SHT31;62978;51.094;-115.362;2022-09-30T23:12:14;19.34;52.09
74494;SHT31;62978;51.094;-115.362;2022-09-30T23:14:42;19.22;52.70
74494;SHT31;62978;51.094;-115.362;2022-09-30T23:17:12;19.06;53.35
74494;SHT31;62978;51.094;-115.362;2022-09-30T23:19:40;18.93;53.90
74494;SHT31;62978;51.094;-115.362;2022-09-30T23:22:28;18.73;54.06
74494;SHT31;62978;51.094;-115.362;2022-09-30T23:25:24;18.58;54.58
74494;SHT31;62978;51.094;-115.362;2022-09-30T23:28:12;18.41;54.18
74494;SHT31;62978;51.094;-115.362;2022-09-30T23:30:39;18.39;54.60
74494;SHT31;62978;51.094;-115.362;2022-09-30T23:36:58;18.26;56.00
74494;SHT31;62978;51.094;-115.362;2022-09-30T23:39:29;18.26;56.85
74494;SHT31;62978;51.094;-115.362;2022-09-30T23:41:58;18.25;57.48
74494;SHT31;62978;51.094;-115.362;2022-09-30T23:44:25;18.22;57.79
74494;SHT31;62978;51.094;-115.362;2022-09-30T23:47:33;18.19;57.96
74494;SHT31;62978;51.094;-115.362;2022-09-30T23:50:11;18.17;58.08
74494;SHT31;62978;51.094;-115.362;2022-09-30T23:52:38;18.14;58.24
74494;SHT31;62978;51.094;-115.362;2022-09-30T23:55:09;18.11;58.54
74494;SHT31;62978;51.094;-115.362;2022-09-30T23:57:37;18.06;58.91
